sensor_id;sensor_type;location;lat;lon;timestamp;pressure;altitude;pressure_sealevel;temperature;humidity
61086;BME280;46967;48.876;2.136;2024-02-28T00:01:23;101980.88;;;31.32;14.98
61086;BME280;46967;48.876;2.136;2024-02-28T00:03:49;101984.81;;;31.38;14.60
61086;BME280;46967;48.876;2.136;2024-02-28T00:06:16;101974.97;;;31.47;14.63
61086;BME280;46967;48.876;2.136;2024-02-28T00:08:42;101983.13;;;31.55;14.56
61086;BME280;46967;48.876;2.136;2024-02-28T00:11:07;101971.94;;;31.59;14.63
61086;BME280;46967;48.876;2.136;2024-02-28T00:13:32;101971.75;;;31.61;14.24
61086;BME280;46967;48.876;2.136;2024-02-28T00:15:58;101971.94;;;31.59;14.03
61086;BME280;46967;48.876;2.136;2024-02-28T00:18:23;101968.16;;;31.52;14.25
61086;BME280;46967;48.876;2.136;2024-02-28T00:20:48;101968.88;;;31.36;14.22
61086;BME280;46967;48.876;2.136;2024-02-28T00:23:14;101972.56;;;31.17;14.75
61086;BME280;46967;48.876;2.136;2024-02-28T00:25:39;101965.81;;;31.13;14.74
61086;BME280;46967;48.876;2.136;2024-02-28T00:28:04;101975.09;;;31.19;14.40
61086;BME280;46967;48.876;2.136;2024-02-28T00:30:30;101968.25;;;31.24;14.57
61086;BME280;46967;48.876;2.136;2024-02-28T00:32:55;101966.75;;;31.22;14.47
61086;BME280;46967;48.876;2.136;2024-02-28T00:35:20;101969.88;;;31.17;14.43
61086;BME280;46967;48.876;2.136;2024-02-28T00:37:45;101968.94;;;31.09;14.42
61086;BME280;46967;48.876;2.136;2024-02-28T00:40:11;101976.66;;;30.94;14.84
61086;BME280;46967;48.876;2.136;2024-02-28T00:42:37;101983.72;;;30.95;14.71
61086;BME280;46967;48.876;2.136;2024-02-28T00:45:03;101987.63;;;31.00;14.92
61086;BME280;46967;48.876;2.136;2024-02-28T00:47:28;101985.81;;;31.01;14.67
61086;BME280;46967;48.876;2.136;2024-02-28T00:49:53;101975.25;;;30.99;14.85
61086;BME280;46967;48.876;2.136;2024-02-28T00:52:19;101977.78;;;30.91;14.52
61086;BME280;46967;48.876;2.136;2024-02-28T00:54:44;101982.69;;;30.96;14.77
61086;BME280;46967;48.876;2.136;2024-02-28T00:57:09;101979.25;;;30.85;14.62
61086;BME280;46967;48.876;2.136;2024-02-28T00:59:35;101994.22;;;30.78;14.48
61086;BME280;46967;48.876;2.136;2024-02-28T01:02:00;101973.75;;;30.87;14.61
61086;BME280;46967;48.876;2.136;2024-02-28T01:04:25;101984.75;;;30.84;14.28
61086;BME280;46967;48.876;2.136;2024-02-28T01:06:51;101983.06;;;30.83;14.66
61086;BME280;46967;48.876;2.136;2024-02-28T01:09:16;101968.56;;;31.03;14.14
61086;BME280;46967;48.876;2.136;2024-02-28T01:11:41;101980.31;;;31.02;14.25
61086;BME280;46967;48.876;2.136;2024-02-28T01:14:07;101973.22;;;30.83;14.17
61086;BME280;46967;48.876;2.136;2024-02-28T01:16:32;101966.31;;;30.81;14.52
61086;BME280;46967;48.876;2.136;2024-02-28T01:18:57;101968.91;;;30.91;14.17
61086;BME280;46967;48.876;2.136;2024-02-28T01:21:23;101967.50;;;30.96;14.26
61086;BME280;46967;48.876;2.136;2024-02-28T01:23:48;101969.06;;;30.89;14.09
61086;BME280;46967;48.876;2.136;2024-02-28T01:26:13;101968.19;;;30.98;14.02
61086;BME280;46967;48.876;2.136;2024-02-28T01:28:39;101971.84;;;30.97;14.10
61086;BME280;46967;48.876;2.136;2024-02-28T01:31:04;101960.16;;;30.98;14.20
61086;BME280;46967;48.876;2.136;2024-02-28T01:33:31;101959.31;;;30.98;14.16
61086;BME280;46967;48.876;2.136;2024-02-28T01:35:56;101954.88;;;31.06;13.75
61086;BME280;46967;48.876;2.136;2024-02-28T01:38:21;101960.28;;;31.15;13.88
61086;BME280;46967;48.876;2.136;2024-02-28T01:40:47;101965.22;;;31.01;13.85
61086;BME280;46967;48.876;2.136;2024-02-28T01:43:12;101969.75;;;30.91;13.96
61086;BME280;46967;48.876;2.136;2024-02-28T01:45:38;101970.75;;;30.90;13.99
61086;BME280;46967;48.876;2.136;2024-02-28T01:48:04;101967.38;;;30.88;14.13
61086;BME280;46967;48.876;2.136;2024-02-28T01:50:31;101972.66;;;30.80;14.17
61086;BME280;46967;48.876;2.136;2024-02-28T01:52:57;101976.06;;;30.72;14.11
61086;BME280;46967;48.876;2.136;2024-02-28T01:55:23;101975.47;;;30.78;14.14
61086;BME280;46967;48.876;2.136;2024-02-28T01:57:48;101973.25;;;30.74;14.11
61086;BME280;46967;48.876;2.136;2024-02-28T02:00:15;101974.19;;;30.64;14.30
61086;BME280;46967;48.876;2.136;2024-02-28T02:02:41;101977.25;;;30.69;14.09
61086;BME280;46967;48.876;2.136;2024-02-28T02:05:08;101967.06;;;30.91;14.06
61086;BME280;46967;48.876;2.136;2024-02-28T02:07:34;101967.22;;;30.89;13.79
61086;BME280;46967;48.876;2.136;2024-02-28T02:10:00;101969.44;;;30.94;13.88
61086;BME280;46967;48.876;2.136;2024-02-28T02:12:26;101968.38;;;30.87;14.07
61086;BME280;46967;48.876;2.136;2024-02-28T02:14:51;101965.00;;;30.85;13.73
61086;BME280;46967;48.876;2.136;2024-02-28T02:17:16;101964.69;;;30.88;13.80
61086;BME280;46967;48.876;2.136;2024-02-28T02:19:42;101979.75;;;30.99;13.93
61086;BME280;46967;48.876;2.136;2024-02-28T02:22:08;101973.28;;;30.92;13.56
61086;BME280;46967;48.876;2.136;2024-02-28T02:24:33;101965.38;;;31.00;13.71
61086;BME280;46967;48.876;2.136;2024-02-28T02:27:00;101971.78;;;31.07;13.65
61086;BME280;46967;48.876;2.136;2024-02-28T02:29:26;101974.13;;;30.92;13.99
61086;BME280;46967;48.876;2.136;2024-02-28T02:31:53;101970.53;;;30.83;13.90
61086;BME280;46967;48.876;2.136;2024-02-28T02:34:18;101964.94;;;30.95;13.64
61086;BME280;46967;48.876;2.136;2024-02-28T02:36:44;101968.34;;;30.97;13.67
61086;BME280;46967;48.876;2.136;2024-02-28T02:39:09;101961.78;;;30.81;13.74
61086;BME280;46967;48.876;2.136;2024-02-28T02:41:34;101961.47;;;30.84;13.83
61086;BME280;46967;48.876;2.136;2024-02-28T02:44:00;101965.94;;;30.76;13.57
61086;BME280;46967;48.876;2.136;2024-02-28T02:46:25;101961.94;;;30.80;13.79
61086;BME280;46967;48.876;2.136;2024-02-28T02:48:50;101964.31;;;30.83;13.75
61086;BME280;46967;48.876;2.136;2024-02-28T02:51:18;101970.91;;;30.88;13.63
61086;BME280;46967;48.876;2.136;2024-02-28T02:53:44;101968.47;;;30.95;13.64
61086;BME280;46967;48.876;2.136;2024-02-28T02:56:09;101969.22;;;30.87;13.65
61086;BME280;46967;48.876;2.136;2024-02-28T02:58:34;101977.47;;;30.94;13.65
61086;BME280;46967;48.876;2.136;2024-02-28T03:01:00;101982.63;;;30.87;13.38
61086;BME280;46967;48.876;2.136;2024-02-28T03:03:25;101991.16;;;30.73;13.60
61086;BME280;46967;48.876;2.136;2024-02-28T03:05:50;101997.66;;;30.70;13.80
61086;BME280;46967;48.876;2.136;2024-02-28T03:08:16;102008.03;;;30.83;13.44
61086;BME280;46967;48.876;2.136;2024-02-28T03:10:41;101999.22;;;31.01;13.09
61086;BME280;46967;48.876;2.136;2024-02-28T03:13:06;102008.97;;;30.92;13.55
61086;BME280;46967;48.876;2.136;2024-02-28T03:15:33;102009.78;;;30.75;13.30
61086;BME280;46967;48.876;2.136;2024-02-28T03:17:58;102016.16;;;30.64;13.48
61086;BME280;46967;48.876;2.136;2024-02-28T03:20:23;102007.09;;;30.75;13.74
61086;BME280;46967;48.876;2.136;2024-02-28T03:22:49;102013.88;;;30.69;13.63
61086;BME280;46967;48.876;2.136;2024-02-28T03:25:14;102008.38;;;30.70;13.31
61086;BME280;46967;48.876;2.136;2024-02-28T03:27:40;102012.44;;;30.75;13.31
61086;BME280;46967;48.876;2.136;2024-02-28T03:30:05;102001.41;;;30.60;13.47
61086;BME280;46967;48.876;2.136;2024-02-28T03:32:31;102012.22;;;30.68;13.23
61086;BME280;46967;48.876;2.136;2024-02-28T03:34:56;102011.88;;;30.43;13.81
61086;BME280;46967;48.876;2.136;2024-02-28T03:37:22;102013.22;;;30.20;13.88
61086;BME280;46967;48.876;2.136;2024-02-28T03:39:47;102007.72;;;30.21;13.74
61086;BME280;46967;48.876;2.136;2024-02-28T03:42:12;102004.91;;;30.23;14.07
61086;BME280;46967;48.876;2.136;2024-02-28T03:44:38;102023.63;;;30.23;13.74
61086;BME280;46967;48.876;2.136;2024-02-28T03:47:03;102020.19;;;30.03;14.05
61086;BME280;46967;48.876;2.136;2024-02-28T03:49:28;102018.31;;;30.13;13.74
61086;BME280;46967;48.876;2.136;2024-02-28T03:51:54;102009.75;;;30.37;13.69
61086;BME280;46967;48.876;2.136;2024-02-28T03:54:19;102015.13;;;30.37;13.71
61086;BME280;46967;48.876;2.136;2024-02-28T03:56:44;102015.88;;;30.39;13.88
61086;BME280;46967;48.876;2.136;2024-02-28T03:59:10;102007.38;;;30.34;13.39
61086;BME280;46967;48.876;2.136;2024-02-28T04:01:35;102000.63;;;30.40;13.76
61086;BME280;46967;48.876;2.136;2024-02-28T04:04:01;101995.69;;;30.35;13.87
61086;BME280;46967;48.876;2.136;2024-02-28T04:06:27;101987.94;;;30.42;13.60
61086;BME280;46967;48.876;2.136;2024-02-28T04:08:52;101991.63;;;30.31;13.84
61086;BME280;46967;48.876;2.136;2024-02-28T04:11:18;101991.63;;;30.31;13.93
61086;BME280;46967;48.876;2.136;2024-02-28T04:13:43;102007.25;;;30.35;13.41
61086;BME280;46967;48.876;2.136;2024-02-28T04:16:09;102003.72;;;30.35;13.68
61086;BME280;46967;48.876;2.136;2024-02-28T04:18:35;102009.66;;;30.29;13.71
61086;BME280;46967;48.876;2.136;2024-02-28T04:21:00;102007.84;;;30.20;14.17
61086;BME280;46967;48.876;2.136;2024-02-28T04:23:26;102011.59;;;30.09;14.11
61086;BME280;46967;48.876;2.136;2024-02-28T04:25:51;102012.00;;;30.04;14.13
61086;BME280;46967;48.876;2.136;2024-02-28T04:28:17;102012.72;;;29.96;14.15
61086;BME280;46967;48.876;2.136;2024-02-28T04:30:42;102013.72;;;29.86;13.99
61086;BME280;46967;48.876;2.136;2024-02-28T04:33:08;102013.72;;;29.86;14.03
61086;BME280;46967;48.876;2.136;2024-02-28T04:35:33;102012.00;;;29.94;14.33
61086;BME280;46967;48.876;2.136;2024-02-28T04:37:59;102024.09;;;30.08;14.12
61086;BME280;46967;48.876;2.136;2024-02-28T04:40:24;102023.78;;;30.21;13.78
61086;BME280;46967;48.876;2.136;2024-02-28T04:42:49;102022.25;;;30.19;13.65
61086;BME280;46967;48.876;2.136;2024-02-28T04:45:14;102015.75;;;30.21;13.96
61086;BME280;46967;48.876;2.136;2024-02-28T04:47:41;102010.78;;;30.36;13.79
61086;BME280;46967;48.876;2.136;2024-02-28T04:50:06;102013.16;;;30.49;13.62
61086;BME280;46967;48.876;2.136;2024-02-28T04:52:32;102015.03;;;30.66;13.15
61086;BME280;46967;48.876;2.136;2024-02-28T04:54:58;102022.28;;;30.84;13.19
61086;BME280;46967;48.876;2.136;2024-02-28T04:57:24;102018.78;;;30.74;12.95
61086;BME280;46967;48.876;2.136;2024-02-28T04:59:49;102020.78;;;30.71;13.22
61086;BME280;46967;48.876;2.136;2024-02-28T05:02:14;102024.72;;;30.67;13.46
61086;BME280;46967;48.876;2.136;2024-02-28T05:04:40;102022.03;;;30.77;13.26
61086;BME280;46967;48.876;2.136;2024-02-28T05:07:05;102029.56;;;30.64;13.46
61086;BME280;46967;48.876;2.136;2024-02-28T05:09:32;102027.16;;;30.61;13.21
61086;BME280;46967;48.876;2.136;2024-02-28T05:11:58;102031.69;;;30.60;13.36
61086;BME280;46967;48.876;2.136;2024-02-28T05:14:24;102035.59;;;30.66;13.07
61086;BME280;46967;48.876;2.136;2024-02-28T05:16:49;102035.50;;;30.58;13.50
61086;BME280;46967;48.876;2.136;2024-02-28T05:19:15;102033.97;;;30.55;13.58
61086;BME280;46967;48.876;2.136;2024-02-28T05:21:43;102043.47;;;30.77;13.44
61086;BME280;46967;48.876;2.136;2024-02-28T05:24:09;102050.56;;;30.86;13.01
61086;BME280;46967;48.876;2.136;2024-02-28T05:26:38;102056.94;;;30.85;12.88
61086;BME280;46967;48.876;2.136;2024-02-28T05:29:04;102054.81;;;30.89;12.96
61086;BME280;46967;48.876;2.136;2024-02-28T05:31:31;102060.91;;;30.81;12.96
61086;BME280;46967;48.876;2.136;2024-02-28T05:33:58;102045.50;;;30.93;13.12
61086;BME280;46967;48.876;2.136;2024-02-28T05:36:25;102055.59;;;30.71;13.14
61086;BME280;46967;48.876;2.136;2024-02-28T05:38:52;102054.78;;;30.71;13.16
61086;BME280;46967;48.876;2.136;2024-02-28T05:41:17;102055.53;;;30.81;13.10
61086;BME280;46967;48.876;2.136;2024-02-28T05:43:43;102049.44;;;30.89;13.08
61086;BME280;46967;48.876;2.136;2024-02-28T05:46:09;102039.41;;;30.91;12.91
61086;BME280;46967;48.876;2.136;2024-02-28T05:48:35;102034.13;;;30.81;13.13
61086;BME280;46967;48.876;2.136;2024-02-28T05:51:01;102039.19;;;30.84;13.04
61086;BME280;46967;48.876;2.136;2024-02-28T05:53:27;102044.47;;;30.94;13.56
61086;BME280;46967;48.876;2.136;2024-02-28T05:55:55;102040.81;;;30.95;13.01
61086;BME280;46967;48.876;2.136;2024-02-28T05:58:22;102042.97;;;30.92;13.34
61086;BME280;46967;48.876;2.136;2024-02-28T06:00:47;102034.34;;;30.88;13.47
61086;BME280;46967;48.876;2.136;2024-02-28T06:03:13;102038.03;;;30.59;13.91
61086;BME280;46967;48.876;2.136;2024-02-28T06:05:38;102035.94;;;30.53;13.94
61086;BME280;46967;48.876;2.136;2024-02-28T06:08:03;102046.63;;;30.63;14.20
61086;BME280;46967;48.876;2.136;2024-02-28T06:10:29;102050.38;;;30.70;14.28
61086;BME280;46967;48.876;2.136;2024-02-28T06:12:54;102047.50;;;30.81;13.94
61086;BME280;46967;48.876;2.136;2024-02-28T06:15:19;102052.97;;;30.99;13.78
61086;BME280;46967;48.876;2.136;2024-02-28T06:17:45;102046.16;;;30.95;13.72
61086;BME280;46967;48.876;2.136;2024-02-28T06:20:10;102046.81;;;31.07;13.90
61086;BME280;46967;48.876;2.136;2024-02-28T06:22:35;102053.50;;;31.21;13.81
61086;BME280;46967;48.876;2.136;2024-02-28T06:25:01;102053.72;;;31.28;13.74
61086;BME280;46967;48.876;2.136;2024-02-28T06:27:26;102053.81;;;31.18;13.88
61086;BME280;46967;48.876;2.136;2024-02-28T06:29:52;102066.53;;;31.16;13.84
61086;BME280;46967;48.876;2.136;2024-02-28T06:32:17;102070.16;;;31.42;13.91
61086;BME280;46967;48.876;2.136;2024-02-28T06:34:42;102070.63;;;31.56;13.51
61086;BME280;46967;48.876;2.136;2024-02-28T06:37:08;102075.69;;;31.59;13.35
61086;BME280;46967;48.876;2.136;2024-02-28T06:39:33;102078.22;;;31.60;13.54
61086;BME280;46967;48.876;2.136;2024-02-28T06:41:58;102078.59;;;31.66;13.70
61086;BME280;46967;48.876;2.136;2024-02-28T06:44:24;102082.34;;;31.73;13.33
61086;BME280;46967;48.876;2.136;2024-02-28T06:46:49;102082.75;;;31.60;13.77
61086;BME280;46967;48.876;2.136;2024-02-28T06:49:14;102083.66;;;31.69;13.67
61086;BME280;46967;48.876;2.136;2024-02-28T06:51:41;102086.44;;;31.77;13.72
61086;BME280;46967;48.876;2.136;2024-02-28T06:54:07;102090.00;;;31.86;13.57
61086;BME280;46967;48.876;2.136;2024-02-28T06:56:32;102087.31;;;31.86;13.67
61086;BME280;46967;48.876;2.136;2024-02-28T06:58:57;102085.44;;;32.04;13.35
61086;BME280;46967;48.876;2.136;2024-02-28T07:01:23;102084.28;;;32.07;13.35
61086;BME280;46967;48.876;2.136;2024-02-28T07:03:48;102080.75;;;32.06;13.51
61086;BME280;46967;48.876;2.136;2024-02-28T07:06:14;102083.91;;;32.02;13.47
61086;BME280;46967;48.876;2.136;2024-02-28T07:08:39;102081.53;;;31.99;13.49
61086;BME280;46967;48.876;2.136;2024-02-28T07:11:04;102088.09;;;31.96;13.70
61086;BME280;46967;48.876;2.136;2024-02-28T07:13:29;102083.09;;;32.01;13.52
61086;BME280;46967;48.876;2.136;2024-02-28T07:15:55;102085.59;;;32.03;13.74
61086;BME280;46967;48.876;2.136;2024-02-28T07:18:23;102094.03;;;32.08;13.47
61086;BME280;46967;48.876;2.136;2024-02-28T07:20:50;102104.41;;;32.03;13.63
61086;BME280;46967;48.876;2.136;2024-02-28T07:23:17;102098.41;;;31.91;13.89
61086;BME280;46967;48.876;2.136;2024-02-28T07:25:42;102102.34;;;31.96;13.38
61086;BME280;46967;48.876;2.136;2024-02-28T07:28:07;102092.50;;;32.05;13.45
61086;BME280;46967;48.876;2.136;2024-02-28T07:30:33;102098.81;;;32.14;13.50
61086;BME280;46967;48.876;2.136;2024-02-28T07:32:58;102100.56;;;32.23;13.47
61086;BME280;46967;48.876;2.136;2024-02-28T07:35:24;102101.97;;;32.09;13.50
61086;BME280;46967;48.876;2.136;2024-02-28T07:37:49;102097.31;;;31.75;13.85
61086;BME280;46967;48.876;2.136;2024-02-28T07:40:15;102097.06;;;31.87;13.81
61086;BME280;46967;48.876;2.136;2024-02-28T07:42:40;102101.97;;;31.91;13.86
61086;BME280;46967;48.876;2.136;2024-02-28T07:45:05;102110.69;;;31.93;13.87
61086;BME280;46967;48.876;2.136;2024-02-28T07:47:33;102105.94;;;31.87;14.05
61086;BME280;46967;48.876;2.136;2024-02-28T07:49:59;102112.44;;;32.03;13.69
61086;BME280;46967;48.876;2.136;2024-02-28T07:52:24;102109.28;;;32.07;13.99
61086;BME280;46967;48.876;2.136;2024-02-28T07:54:49;102117.44;;;32.16;13.70
61086;BME280;46967;48.876;2.136;2024-02-28T07:57:15;102119.38;;;32.31;13.73
61086;BME280;46967;48.876;2.136;2024-02-28T07:59:43;102119.63;;;32.46;13.86
61086;BME280;46967;48.876;2.136;2024-02-28T08:02:09;102121.44;;;32.64;13.86
61086;BME280;46967;48.876;2.136;2024-02-28T08:04:37;102120.03;;;32.86;13.77
61086;BME280;46967;48.876;2.136;2024-02-28T08:07:02;102125.81;;;32.99;13.60
61086;BME280;46967;48.876;2.136;2024-02-28T08:09:28;102123.66;;;33.11;13.58
61086;BME280;46967;48.876;2.136;2024-02-28T08:11:54;102119.84;;;33.22;13.28
61086;BME280;46967;48.876;2.136;2024-02-28T08:14:19;102124.09;;;33.33;13.60
61086;BME280;46967;48.876;2.136;2024-02-28T08:16:44;102128.75;;;33.22;13.58
61086;BME280;46967;48.876;2.136;2024-02-28T08:19:10;102128.28;;;33.27;13.63
61086;BME280;46967;48.876;2.136;2024-02-28T08:21:35;102120.69;;;33.22;13.55
61086;BME280;46967;48.876;2.136;2024-02-28T08:24:00;102125.25;;;33.38;13.88
61086;BME280;46967;48.876;2.136;2024-02-28T08:26:29;102140.13;;;33.16;14.22
61086;BME280;46967;48.876;2.136;2024-02-28T08:28:55;102138.69;;;33.22;14.03
61086;BME280;46967;48.876;2.136;2024-02-28T08:31:20;102142.28;;;33.39;14.05
61086;BME280;46967;48.876;2.136;2024-02-28T08:33:45;102144.31;;;33.45;14.00
61086;BME280;46967;48.876;2.136;2024-02-28T08:36:11;102138.56;;;33.48;13.71
61086;BME280;46967;48.876;2.136;2024-02-28T08:38:36;102138.94;;;33.53;13.84
61086;BME280;46967;48.876;2.136;2024-02-28T08:41:04;102134.38;;;33.62;13.90
61086;BME280;46967;48.876;2.136;2024-02-28T08:43:29;102130.03;;;33.69;14.04
61086;BME280;46967;48.876;2.136;2024-02-28T08:45:54;102122.66;;;33.96;13.87
61086;BME280;46967;48.876;2.136;2024-02-28T08:48:20;102124.00;;;34.00;13.79
61086;BME280;46967;48.876;2.136;2024-02-28T08:50:45;102117.25;;;34.12;13.91
61086;BME280;46967;48.876;2.136;2024-02-28T08:53:11;102110.38;;;34.26;13.64
61086;BME280;46967;48.876;2.136;2024-02-28T08:55:36;102114.75;;;34.36;13.77
61086;BME280;46967;48.876;2.136;2024-02-28T08:58:01;102106.09;;;34.48;13.91
61086;BME280;46967;48.876;2.136;2024-02-28T09:00:27;102109.78;;;34.56;14.03
61086;BME280;46967;48.876;2.136;2024-02-28T09:02:52;102110.25;;;34.76;13.75
61086;BME280;46967;48.876;2.136;2024-02-28T09:05:17;102111.53;;;34.88;13.78
61086;BME280;46967;48.876;2.136;2024-02-28T09:07:43;102104.19;;;35.05;13.79
61086;BME280;46967;48.876;2.136;2024-02-28T09:10:09;102116.94;;;35.28;13.42
61086;BME280;46967;48.876;2.136;2024-02-28T09:12:34;102110.75;;;35.42;13.60
61086;BME280;46967;48.876;2.136;2024-02-28T09:15:00;102104.63;;;35.25;13.84
61086;BME280;46967;48.876;2.136;2024-02-28T09:17:25;102106.06;;;35.36;13.87
61086;BME280;46967;48.876;2.136;2024-02-28T09:19:52;102109.34;;;35.46;13.77
61086;BME280;46967;48.876;2.136;2024-02-28T09:22:17;102101.72;;;35.73;13.62
61086;BME280;46967;48.876;2.136;2024-02-28T09:24:43;102108.91;;;35.66;13.89
61086;BME280;46967;48.876;2.136;2024-02-28T09:27:08;102112.88;;;35.70;13.74
61086;BME280;46967;48.876;2.136;2024-02-28T09:29:33;102119.44;;;35.52;13.92
61086;BME280;46967;48.876;2.136;2024-02-28T09:31:59;102116.91;;;35.19;13.85
61086;BME280;46967;48.876;2.136;2024-02-28T09:34:24;102120.47;;;35.20;13.99
61086;BME280;46967;48.876;2.136;2024-02-28T09:36:52;102122.13;;;35.21;13.86
61086;BME280;46967;48.876;2.136;2024-02-28T09:39:17;102125.50;;;35.31;13.05
61086;BME280;46967;48.876;2.136;2024-02-28T09:41:43;102121.78;;;35.32;13.31
61086;BME280;46967;48.876;2.136;2024-02-28T09:44:08;102130.34;;;35.36;13.15
61086;BME280;46967;48.876;2.136;2024-02-28T09:46:34;102126.84;;;35.27;13.47
61086;BME280;46967;48.876;2.136;2024-02-28T09:49:07;102129.75;;;35.17;12.89
61086;BME280;46967;48.876;2.136;2024-02-28T09:51:33;102124.81;;;34.98;13.72
61086;BME280;46967;48.876;2.136;2024-02-28T09:54:05;102129.16;;;34.59;13.86
61086;BME280;46967;48.876;2.136;2024-02-28T09:56:31;102128.47;;;34.57;14.79
61086;BME280;46967;48.876;2.136;2024-02-28T09:58:57;102118.13;;;34.86;14.25
61086;BME280;46967;48.876;2.136;2024-02-28T10:01:22;102125.06;;;35.43;13.14
61086;BME280;46967;48.876;2.136;2024-02-28T10:03:51;102120.28;;;35.30;13.54
61086;BME280;46967;48.876;2.136;2024-02-28T10:06:17;102124.72;;;35.69;13.12
61086;BME280;46967;48.876;2.136;2024-02-28T10:08:43;102134.84;;;35.12;13.50
61086;BME280;46967;48.876;2.136;2024-02-28T10:11:17;102131.69;;;35.63;13.31
61086;BME280;46967;48.876;2.136;2024-02-28T10:13:42;102132.47;;;35.49;13.52
61086;BME280;46967;48.876;2.136;2024-02-28T10:16:07;102133.94;;;35.28;13.42
61086;BME280;46967;48.876;2.136;2024-02-28T10:18:33;102133.69;;;35.07;13.56
61086;BME280;46967;48.876;2.136;2024-02-28T10:20:59;102123.91;;;34.74;14.07
61086;BME280;46967;48.876;2.136;2024-02-28T10:23:24;102125.41;;;35.16;13.57
61086;BME280;46967;48.876;2.136;2024-02-28T10:25:49;102135.03;;;35.11;13.58
61086;BME280;46967;48.876;2.136;2024-02-28T10:28:14;102132.16;;;34.64;14.18
61086;BME280;46967;48.876;2.136;2024-02-28T10:30:41;102144.81;;;32.19;16.33
61086;BME280;46967;48.876;2.136;2024-02-28T10:33:15;102144.50;;;31.68;17.15
61086;BME280;46967;48.876;2.136;2024-02-28T10:35:41;102145.41;;;32.31;16.47
61086;BME280;46967;48.876;2.136;2024-02-28T10:38:10;102134.78;;;33.75;15.27
61086;BME280;46967;48.876;2.136;2024-02-28T10:40:35;102141.88;;;32.57;15.98
61086;BME280;46967;48.876;2.136;2024-02-28T10:43:02;102147.13;;;32.14;16.49
61086;BME280;46967;48.876;2.136;2024-02-28T10:45:30;102144.84;;;32.45;16.26
61086;BME280;46967;48.876;2.136;2024-02-28T10:47:56;102147.91;;;31.88;16.88
61086;BME280;46967;48.876;2.136;2024-02-28T10:50:21;102150.13;;;32.11;16.82
61086;BME280;46967;48.876;2.136;2024-02-28T10:52:48;102144.13;;;32.43;16.35
61086;BME280;46967;48.876;2.136;2024-02-28T10:55:20;102145.44;;;33.26;15.64
61086;BME280;46967;48.876;2.136;2024-02-28T10:57:48;102151.59;;;33.78;15.17
61086;BME280;46967;48.876;2.136;2024-02-28T11:00:18;102156.97;;;34.35;14.72
61086;BME280;46967;48.876;2.136;2024-02-28T11:02:44;102170.25;;;33.96;14.91
61086;BME280;46967;48.876;2.136;2024-02-28T11:05:10;102175.72;;;32.49;16.20
61086;BME280;46967;48.876;2.136;2024-02-28T11:07:35;102174.09;;;33.68;15.32
61086;BME280;46967;48.876;2.136;2024-02-28T11:10:05;102177.03;;;32.19;16.49
61086;BME280;46967;48.876;2.136;2024-02-28T11:12:31;102176.47;;;33.80;15.09
61086;BME280;46967;48.876;2.136;2024-02-28T11:15:01;102175.34;;;33.31;15.35
61086;BME280;46967;48.876;2.136;2024-02-28T11:17:28;102173.63;;;34.14;14.78
61086;BME280;46967;48.876;2.136;2024-02-28T11:19:54;102164.63;;;34.71;14.50
61086;BME280;46967;48.876;2.136;2024-02-28T11:22:20;102169.72;;;34.74;14.14
61086;BME280;46967;48.876;2.136;2024-02-28T11:24:46;102165.66;;;34.62;14.38
61086;BME280;46967;48.876;2.136;2024-02-28T11:27:12;102175.94;;;34.75;14.24
61086;BME280;46967;48.876;2.136;2024-02-28T11:29:41;102171.91;;;34.71;14.13
61086;BME280;46967;48.876;2.136;2024-02-28T11:32:06;102160.44;;;34.60;14.40
61086;BME280;46967;48.876;2.136;2024-02-28T11:34:33;102159.31;;;34.22;14.55
61086;BME280;46967;48.876;2.136;2024-02-28T11:36:59;102161.63;;;34.66;14.15
61086;BME280;46967;48.876;2.136;2024-02-28T11:39:24;102155.72;;;35.18;13.76
61086;BME280;46967;48.876;2.136;2024-02-28T11:41:53;102155.53;;;35.20;13.41
61086;BME280;46967;48.876;2.136;2024-02-28T11:44:18;102155.41;;;35.45;13.75
61086;BME280;46967;48.876;2.136;2024-02-28T11:46:48;102156.28;;;35.37;13.61
61086;BME280;46967;48.876;2.136;2024-02-28T11:49:14;102155.06;;;35.71;13.60
61086;BME280;46967;48.876;2.136;2024-02-28T11:51:40;102156.69;;;35.26;13.44
61086;BME280;46967;48.876;2.136;2024-02-28T11:54:07;102157.81;;;35.40;13.42
61086;BME280;46967;48.876;2.136;2024-02-28T11:56:32;102158.31;;;35.66;13.45
61086;BME280;46967;48.876;2.136;2024-02-28T11:58:58;102157.81;;;33.86;14.81
61086;BME280;46967;48.876;2.136;2024-02-28T12:01:37;102164.22;;;33.93;14.79
61086;BME280;46967;48.876;2.136;2024-02-28T12:04:04;102155.09;;;34.52;14.29
61086;BME280;46967;48.876;2.136;2024-02-28T12:06:31;102148.28;;;34.81;14.21
61086;BME280;46967;48.876;2.136;2024-02-28T12:08:56;102144.28;;;34.77;13.83
61086;BME280;46967;48.876;2.136;2024-02-28T12:11:21;102133.03;;;35.05;14.06
61086;BME280;46967;48.876;2.136;2024-02-28T12:13:46;102134.56;;;34.99;14.46
61086;BME280;46967;48.876;2.136;2024-02-28T12:16:12;102122.63;;;35.79;13.72
61086;BME280;46967;48.876;2.136;2024-02-28T12:18:37;102106.19;;;34.72;14.46
61086;BME280;46967;48.876;2.136;2024-02-28T12:21:03;102109.19;;;35.48;13.89
61086;BME280;46967;48.876;2.136;2024-02-28T12:23:29;102099.44;;;36.53;13.30
61086;BME280;46967;48.876;2.136;2024-02-28T12:25:54;102108.94;;;36.19;13.57
61086;BME280;46967;48.876;2.136;2024-02-28T12:28:19;102107.38;;;36.54;12.87
61086;BME280;46967;48.876;2.136;2024-02-28T12:30:45;102105.09;;;36.13;13.44
61086;BME280;46967;48.876;2.136;2024-02-28T12:33:10;102097.75;;;36.96;12.97
61086;BME280;46967;48.876;2.136;2024-02-28T12:35:39;102103.63;;;36.11;13.31
61086;BME280;46967;48.876;2.136;2024-02-28T12:38:04;102098.69;;;37.04;12.75
61086;BME280;46967;48.876;2.136;2024-02-28T12:40:30;102094.34;;;36.73;12.41
61086;BME280;46967;48.876;2.136;2024-02-28T12:42:56;102087.63;;;37.63;11.95